Celebrity Solstice — 9HRJ9 — position and weather

sailwx.info

Track history (hours):
 
Tides and Currents Weather Stations Pressure Air Temp Water Temp Dewpoint Dewpoint Depression Visibility Wind Speed Wind Dir Waves Ship Positions

Celebrity Solstice

Last reported at 2018-Feb-19 03:00 UTC. Time now 2018-Feb-19 10:15 UTC.
Position S 38°06' E 178°30'.

Length 317 m; draft 9 m.

Type: Ship. MMSI: 249409000.

Wind from 340 at 20 knots

Barometer 1018.0 mb
Air temperature 20.0 ° C
Visibility: greater than 5.4 NM
Water temperature 19.0 ° C

Date/timePositionNaut miles runAvg speedWind from/ knotsBaromVisibWave heightAir tempDewpointWater temp
2018-Feb-19 03:00S 38°06' E 178°30'1312.9 340 / 201018.0 5.4 20.0 19.0
2018-Feb-19 02:00S 37°54' E 178°36'36 7.1 330 / 201013.0 2.2 25.2 23.6
2018-Feb-18 21:00S 37°24' E 178°12'43 8.6 290 / 171016.027.0 25.0
2018-Feb-18 16:00S 37°24' E 177°18'1615.5 290 / 131018.010.8 20.0 19.0
2018-Feb-18 15:00S 37°18' E 177°00'11 5.6 310 / 111017.210.8 21.7 24.9
2018-Feb-18 13:00S 37°24' E 176°48'28 9.0 310 / 121017.510.8 21.8 24.8
2018-Feb-18 09:56S 37°33' E 176°15'4 9.0
2018-Feb-18 09:29S 37°36' E 176°12'2 0.7
2018-Feb-18 06:05S 37°38' E 176°11'546.7
2018-Feb-18 06:00S 37°36' E 176°06'522.7 320 / 121018.0 5.4 23.0 21.0
2018-Feb-18 05:47S 37°38' E 176°11'0 0.0
2018-Feb-18 05:17S 37°38' E 176°11'0 0.0
2018-Feb-18 03:05S 37°38' E 176°11'0 0.0
2018-Feb-18 03:00S 37°38' E 176°11'0 0.0
2018-Feb-18 00:43S 37°38' E 176°11'0 0.0
2018-Feb-18 00:13S 37°38' E 176°11'0 0.0
2018-Feb-17 23:43S 37°38' E 176°11'0 0.0
2018-Feb-17 23:30S 37°38' E 176°11'0 0.0
2018-Feb-17 22:30S 37°38' E 176°11'0 0.0
2018-Feb-17 21:48S 37°38' E 176°11'0 0.0
2018-Feb-17 21:24S 37°38' E 176°11'0 0.7
2018-Feb-17 20:59S 37°38' E 176°11'4 8.2
2018-Feb-17 20:30S 37°35' E 176°12'4111.6
2018-Feb-17 17:00S 36°54' E 176°12'38 9.6 350 / 51016.0 5.4 21.0 22.0
2018-Feb-17 13:00S 36°24' E 175°42'10 9.7 010 / 81018.310.8 21.6 24.8
2018-Feb-17 12:00S 36°24' E 175°30'10 8.9 340 / 71018.910.8 21.6 24.8
2018-Feb-17 10:50S 36°22' E 175°17'410.6
2018-Feb-17 10:30S 36°25' E 175°14'510.8
2018-Feb-17 10:00S 36°29' E 175°10'510.6
2018-Feb-17 09:30S 36°32' E 175°05'510.6
2018-Feb-17 09:00S 36°36' E 175°00'510.6
2018-Feb-17 08:31S 36°40' E 174°55'510.7
2018-Feb-17 08:01S 36°43' E 174°51'510.4
2018-Feb-17 07:31S 36°49' E 174°50'3 6.5
2018-Feb-17 07:00S 36°50' E 174°46'0 0.3
2018-Feb-17 06:19S 36°50' E 174°46'0 0.0
2018-Feb-17 05:49S 36°50' E 174°46'0 0.0
2018-Feb-17 05:13S 36°50' E 174°46'0 0.0
2018-Feb-17 04:55S 36°50' E 174°46'0 0.0
2018-Feb-17 03:49S 36°50' E 174°46'0 0.0
2018-Feb-17 03:25S 36°50' E 174°46'0 0.0
2018-Feb-17 02:55S 36°50' E 174°46'0 0.0
2018-Feb-17 02:13S 36°50' E 174°46'0 0.0
2018-Feb-17 01:55S 36°50' E 174°46'0 0.0
2018-Feb-17 00:25S 36°50' E 174°46'0 0.0
2018-Feb-16 23:43S 36°50' E 174°46'0 0.0
2018-Feb-16 23:25S 36°50' E 174°46'0 0.0
2018-Feb-16 22:13S 36°50' E 174°46'0 0.0
2018-Feb-16 21:55S 36°50' E 174°46'0 0.0
2018-Feb-16 21:25S 36°50' E 174°46'0 0.0
2018-Feb-16 20:55S 36°50' E 174°46'0 0.0
2018-Feb-16 20:25S 36°50' E 174°46'0 0.0
2018-Feb-16 19:55S 36°50' E 174°46'0 0.0
2018-Feb-16 19:25S 36°50' E 174°46'0 0.0
2018-Feb-16 18:43S 36°50' E 174°46'0 0.0
2018-Feb-16 18:25S 36°50' E 174°46'0 0.0
2018-Feb-16 17:55S 36°50' E 174°46'0 0.0
2018-Feb-16 17:25S 36°50' E 174°46'0 0.0
2018-Feb-16 16:55S 36°50' E 174°46'0 0.6
2018-Feb-16 16:30S 36°50' E 174°46'3 6.3
2018-Feb-16 16:00S 36°49' E 174°50'511.1
2018-Feb-16 15:30S 36°43' E 174°51'4 8.9
2018-Feb-16 15:00S 36°40' E 174°55'5 9.0
2018-Feb-16 14:30S 36°36' E 174°58'4 8.4
2018-Feb-16 14:00S 36°32' E 175°00'5 9.6
2018-Feb-16 13:30S 36°28' E 175°00'5 9.6
2018-Feb-16 13:00S 36°23' E 174°59'6410.0
2018-Feb-16 13:00S 36°18' E 174°54'3 5.5 350 / 161017.310.8 23.2 25.2
2018-Feb-16 12:30S 36°18' E 174°57'5 9.6
2018-Feb-16 12:00S 36°13' E 174°56'4414.6
2018-Feb-16 09:00S 35°30' E 174°48'39 3.2 040 / 111016.027.0 25.0
2018-Feb-15 21:00S 35°12' E 174°06'34 4.9 030 / 51015.027.0 24.0
2018-Feb-15 14:00S 35°12' E 174°48'8 7.7 270 / 21016.8 5.4 21.3 24.8
2018-Feb-15 13:00S 35°18' E 174°54'3318.4 360 / 61017.0 21.2 24.7
2018-Feb-15 11:11S 35°38' E 175°27'317.1
2018-Feb-15 11:00S 35°39' E 175°30'1017.2
2018-Feb-15 10:26S 35°45' E 175°40'716.4
2018-Feb-15 10:00S 35°48' E 175°48'338.7 330 / 71014.027.0 25.0
2018-Feb-15 09:55S 35°51' E 175°48'717.2
2018-Feb-15 09:29S 35°55' E 175°56'917.1
2018-Feb-15 08:57S 36°01' E 176°04'10915.7
2018-Feb-15 02:00S 37°06' E 177°54'90 9.0 300 / 161015.110.8 21.6 24.2
2018-Feb-14 16:00S 38°30' E 178°36'1312.9 330 / 101013.310.8 21.0 22.9
2018-Feb-14 15:00S 38°42' E 178°30'26 8.6 290 / 71012.0 5.4 21.5 23.3
2018-Feb-14 12:00S 39°06' E 178°18'3311.1 310 / 191012.3 5.4 20.8 22.4
2018-Feb-14 09:00S 39°24' E 177°42'37 2.9 330 / 141009.027.0 21.0
2018-Feb-13 20:00S 39°24' E 176°54'5010.0 090 / 71012.027.0 22.0
2018-Feb-13 15:00S 40°12' E 177°12'2813.8 250 / 161012.310.8 20.9 21.9
2018-Feb-13 13:00S 40°36' E 176°54'4321.3 280 / 141012.010.8 20.5 22.0
2018-Feb-13 11:00S 41°12' E 176°24'4715.7 300 / 221011.027.0 22.0
2018-Feb-13 08:00S 41°36' E 175°30'93 4.7 340 / 291009.027.0 20.0
2018-Feb-12 12:00S 42°36' E 173°54'84 8.4 350 / 101004.0 5.4 20.7 19.3
2018-Feb-12 02:00S 43°48' E 172°54'0 0.0 190 / 101003.010.8 22.3 20.0
2018-Feb-12 00:00S 43°48' E 172°54'0 0.0 180 / 101014.010.8 21.1 19.0
2018-Feb-11 22:00S 43°48' E 172°54'59 6.6 180 / 121003.027.0 19.0
2018-Feb-11 13:00S 44°36' E 172°06'1817.5 320 / 5999.0 5.4 17.4 17.5
2018-Feb-11 12:00S 44°48' E 171°48'2512.4 250 / 5999.0 5.4 17.7 18.4
2018-Feb-11 10:00S 45°06' E 171°24'1514.7 998.027.0 20.0
2018-Feb-11 09:00S 45°18' E 171°12'3414.8 320 / 10998.027.0 19.0
2018-Feb-11 06:42S 45°46' E 170°43'210.0
2018-Feb-11 06:28S 45°48' E 170°42'4 0.5
2018-Feb-10 21:00S 45°48' E 170°36'1 0.8 020 / 131004.027.0 21.0
2018-Feb-10 19:11S 45°49' E 170°38'1 5.7
2018-Feb-10 19:00S 45°48' E 170°39'4 8.4
2018-Feb-10 18:30S 45°45' E 170°43'5 9.5
2018-Feb-10 18:00S 45°46' E 170°50'715.2
2018-Feb-10 17:30S 45°53' E 170°48'815.9
2018-Feb-10 17:00S 45°59' E 170°39'815.9
2018-Feb-10 16:30S 46°04' E 170°31'816.2
2018-Feb-10 16:00S 46°10' E 170°22'816.3
2018-Feb-10 15:30S 46°15' E 170°14'816.1
2018-Feb-10 15:00S 46°20' E 170°05'816.0
2018-Feb-10 14:30S 46°26' E 169°56'816.0
2018-Feb-10 14:00S 46°31' E 169°48'815.7
2018-Feb-10 13:30S 46°36' E 169°39'815.6
2018-Feb-10 13:00S 46°39' E 169°28'4254.2
2018-Feb-10 13:00S 46°36' E 169°24'714.3 050 / 291009.9 5.4 16.0 18.4
2018-Feb-10 12:30S 46°41' E 169°17'816.0
2018-Feb-10 12:00S 46°43' E 169°06'169.9
2018-Feb-10 12:00S 46°42' E 169°06'817.1 060 / 191010.0 5.4 16.1 18.7
2018-Feb-10 11:30S 46°45' E 168°55'815.2
2018-Feb-10 11:00S 46°43' E 168°44'9546.9
2018-Feb-10 11:00S 46°36' E 168°36'510.9 090 / 141010.027.0 19.0
2018-Feb-10 10:30S 46°41' E 168°33'815.6
2018-Feb-10 10:00S 46°41' E 168°22'815.4
2018-Feb-10 09:30S 46°39' E 168°11'816.0
2018-Feb-10 09:00S 46°36' E 167°60'4286.9
2018-Feb-10 09:00S 46°36' E 168°06'1224.5 180 / 211012.027.0 19.0
2018-Feb-10 08:30S 46°34' E 167°49'815.9
2018-Feb-10 08:00S 46°31' E 167°38'815.7
2018-Feb-10 07:30S 46°28' E 167°28'815.6
2018-Feb-10 07:00S 46°25' E 167°17'815.9
2018-Feb-10 06:30S 46°22' E 167°06'816.1
2018-Feb-10 06:00S 46°19' E 166°56'815.7
2018-Feb-10 05:30S 46°17' E 166°45'815.9
2018-Feb-10 05:01S 46°12' E 166°35'915.9
2018-Feb-10 04:28S 46°06' E 166°27'7513.8
2018-Feb-09 23:00S 44°54' E 167°00'1312.7 360 / 51012.027.0 20.4
2018-Feb-09 22:00S 44°42' E 167°06'22 2.8 130 / 61013.027.0 21.0
2018-Feb-09 14:00S 44°24' E 166°48'2110.7 360 / 121013.3 5.4 16.5 20.4
2018-Feb-09 12:00S 44°24' E 166°18'   260 / 91013.0 5.4 15.8 19.8
Track history (hours):
 
Tides and Currents Weather Stations Pressure Air Temp Water Temp Dewpoint Dewpoint Depression Visibility Wind Speed Wind Dir Waves Ship Positions

Celebrity Solstice

Last reported at 2018-Feb-19 03:00 UTC. Time now 2018-Feb-19 10:15 UTC.
Position S 38°06' E 178°30'.

Length 317 m; draft 9 m.

Type: Ship. MMSI: 249409000.

Wind from 340 at 20 knots

Barometer 1018.0 mb
Air temperature 20.0 ° C
Visibility: greater than 5.4 NM
Water temperature 19.0 ° C

Date/timePositionNaut miles runAvg speedWind from/ knotsBaromVisibWave heightAir tempDewpointWater temp
2018-Feb-19 03:00S 38°06' E 178°30'1312.9 340 / 201018.0 5.4 20.0 19.0
2018-Feb-19 02:00S 37°54' E 178°36'36 7.1 330 / 201013.0 2.2 25.2 23.6
2018-Feb-18 21:00S 37°24' E 178°12'43 8.6 290 / 171016.027.0 25.0
2018-Feb-18 16:00S 37°24' E 177°18'1615.5 290 / 131018.010.8 20.0 19.0
2018-Feb-18 15:00S 37°18' E 177°00'11 5.6 310 / 111017.210.8 21.7 24.9
2018-Feb-18 13:00S 37°24' E 176°48'28 9.0 310 / 121017.510.8 21.8 24.8
2018-Feb-18 09:56S 37°33' E 176°15'4 9.0
2018-Feb-18 09:29S 37°36' E 176°12'2 0.7
2018-Feb-18 06:05S 37°38' E 176°11'546.7
2018-Feb-18 06:00S 37°36' E 176°06'522.7 320 / 121018.0 5.4 23.0 21.0
2018-Feb-18 05:47S 37°38' E 176°11'0 0.0
2018-Feb-18 05:17S 37°38' E 176°11'0 0.0
2018-Feb-18 03:05S 37°38' E 176°11'0 0.0
2018-Feb-18 03:00S 37°38' E 176°11'0 0.0
2018-Feb-18 00:43S 37°38' E 176°11'0 0.0
2018-Feb-18 00:13S 37°38' E 176°11'0 0.0
2018-Feb-17 23:43S 37°38' E 176°11'0 0.0
2018-Feb-17 23:30S 37°38' E 176°11'0 0.0
2018-Feb-17 22:30S 37°38' E 176°11'0 0.0
2018-Feb-17 21:48S 37°38' E 176°11'0 0.0
2018-Feb-17 21:24S 37°38' E 176°11'0 0.7
2018-Feb-17 20:59S 37°38' E 176°11'4 8.2
2018-Feb-17 20:30S 37°35' E 176°12'4111.6
2018-Feb-17 17:00S 36°54' E 176°12'38 9.6 350 / 51016.0 5.4 21.0 22.0
2018-Feb-17 13:00S 36°24' E 175°42'10 9.7 010 / 81018.310.8 21.6 24.8
2018-Feb-17 12:00S 36°24' E 175°30'10 8.9 340 / 71018.910.8 21.6 24.8
2018-Feb-17 10:50S 36°22' E 175°17'410.6
2018-Feb-17 10:30S 36°25' E 175°14'510.8
2018-Feb-17 10:00S 36°29' E 175°10'510.6
2018-Feb-17 09:30S 36°32' E 175°05'510.6
2018-Feb-17 09:00S 36°36' E 175°00'510.6
2018-Feb-17 08:31S 36°40' E 174°55'510.7
2018-Feb-17 08:01S 36°43' E 174°51'510.4
2018-Feb-17 07:31S 36°49' E 174°50'3 6.5
2018-Feb-17 07:00S 36°50' E 174°46'0 0.3
2018-Feb-17 06:19S 36°50' E 174°46'0 0.0
2018-Feb-17 05:49S 36°50' E 174°46'0 0.0
2018-Feb-17 05:13S 36°50' E 174°46'0 0.0
2018-Feb-17 04:55S 36°50' E 174°46'0 0.0
2018-Feb-17 03:49S 36°50' E 174°46'0 0.0
2018-Feb-17 03:25S 36°50' E 174°46'0 0.0
2018-Feb-17 02:55S 36°50' E 174°46'0 0.0
2018-Feb-17 02:13S 36°50' E 174°46'0 0.0
2018-Feb-17 01:55S 36°50' E 174°46'0 0.0
2018-Feb-17 00:25S 36°50' E 174°46'0 0.0
2018-Feb-16 23:43S 36°50' E 174°46'0 0.0
2018-Feb-16 23:25S 36°50' E 174°46'0 0.0
2018-Feb-16 22:13S 36°50' E 174°46'0 0.0
2018-Feb-16 21:55S 36°50' E 174°46'0 0.0
2018-Feb-16 21:25S 36°50' E 174°46'0 0.0
2018-Feb-16 20:55S 36°50' E 174°46'0 0.0
2018-Feb-16 20:25S 36°50' E 174°46'0 0.0
2018-Feb-16 19:55S 36°50' E 174°46'0 0.0
2018-Feb-16 19:25S 36°50' E 174°46'0 0.0
2018-Feb-16 18:43S 36°50' E 174°46'0 0.0
2018-Feb-16 18:25S 36°50' E 174°46'0 0.0
2018-Feb-16 17:55S 36°50' E 174°46'0 0.0
2018-Feb-16 17:25S 36°50' E 174°46'0 0.0
2018-Feb-16 16:55S 36°50' E 174°46'0 0.6
2018-Feb-16 16:30S 36°50' E 174°46'3 6.3
2018-Feb-16 16:00S 36°49' E 174°50'511.1
2018-Feb-16 15:30S 36°43' E 174°51'4 8.9
2018-Feb-16 15:00S 36°40' E 174°55'5 9.0
2018-Feb-16 14:30S 36°36' E 174°58'4 8.4
2018-Feb-16 14:00S 36°32' E 175°00'5 9.6
2018-Feb-16 13:30S 36°28' E 175°00'5 9.6
2018-Feb-16 13:00S 36°23' E 174°59'6410.0
2018-Feb-16 13:00S 36°18' E 174°54'3 5.5 350 / 161017.310.8 23.2 25.2
2018-Feb-16 12:30S 36°18' E 174°57'5 9.6
2018-Feb-16 12:00S 36°13' E 174°56'4414.6
2018-Feb-16 09:00S 35°30' E 174°48'39 3.2 040 / 111016.027.0 25.0
2018-Feb-15 21:00S 35°12' E 174°06'34 4.9 030 / 51015.027.0 24.0
2018-Feb-15 14:00S 35°12' E 174°48'8 7.7 270 / 21016.8 5.4 21.3 24.8
2018-Feb-15 13:00S 35°18' E 174°54'3318.4 360 / 61017.0 21.2 24.7
2018-Feb-15 11:11S 35°38' E 175°27'317.1
2018-Feb-15 11:00S 35°39' E 175°30'1017.2
2018-Feb-15 10:26S 35°45' E 175°40'716.4
2018-Feb-15 10:00S 35°48' E 175°48'338.7 330 / 71014.027.0 25.0
2018-Feb-15 09:55S 35°51' E 175°48'717.2
2018-Feb-15 09:29S 35°55' E 175°56'917.1
2018-Feb-15 08:57S 36°01' E 176°04'10915.7
2018-Feb-15 02:00S 37°06' E 177°54'90 9.0 300 / 161015.110.8 21.6 24.2
2018-Feb-14 16:00S 38°30' E 178°36'1312.9 330 / 101013.310.8 21.0 22.9
2018-Feb-14 15:00S 38°42' E 178°30'26 8.6 290 / 71012.0 5.4 21.5 23.3
2018-Feb-14 12:00S 39°06' E 178°18'3311.1 310 / 191012.3 5.4 20.8 22.4
2018-Feb-14 09:00S 39°24' E 177°42'37 2.9 330 / 141009.027.0 21.0
2018-Feb-13 20:00S 39°24' E 176°54'5010.0 090 / 71012.027.0 22.0
2018-Feb-13 15:00S 40°12' E 177°12'2813.8 250 / 161012.310.8 20.9 21.9
2018-Feb-13 13:00S 40°36' E 176°54'4321.3 280 / 141012.010.8 20.5 22.0
2018-Feb-13 11:00S 41°12' E 176°24'4715.7 300 / 221011.027.0 22.0
2018-Feb-13 08:00S 41°36' E 175°30'93 4.7 340 / 291009.027.0 20.0
2018-Feb-12 12:00S 42°36' E 173°54'84 8.4 350 / 101004.0 5.4 20.7 19.3
2018-Feb-12 02:00S 43°48' E 172°54'0 0.0 190 / 101003.010.8 22.3 20.0
2018-Feb-12 00:00S 43°48' E 172°54'0 0.0 180 / 101014.010.8 21.1 19.0
2018-Feb-11 22:00S 43°48' E 172°54'59 6.6 180 / 121003.027.0 19.0
2018-Feb-11 13:00S 44°36' E 172°06'1817.5 320 / 5999.0 5.4 17.4 17.5
2018-Feb-11 12:00S 44°48' E 171°48'2512.4 250 / 5999.0 5.4 17.7 18.4
2018-Feb-11 10:00S 45°06' E 171°24'1514.7 998.027.0 20.0
2018-Feb-11 09:00S 45°18' E 171°12'3414.8 320 / 10998.027.0 19.0
2018-Feb-11 06:42S 45°46' E 170°43'210.0
2018-Feb-11 06:28S 45°48' E 170°42'4 0.5
2018-Feb-10 21:00S 45°48' E 170°36'1 0.8 020 / 131004.027.0 21.0
2018-Feb-10 19:11S 45°49' E 170°38'1 5.7
2018-Feb-10 19:00S 45°48' E 170°39'4 8.4
2018-Feb-10 18:30S 45°45' E 170°43'5 9.5
2018-Feb-10 18:00S 45°46' E 170°50'715.2
2018-Feb-10 17:30S 45°53' E 170°48'815.9
2018-Feb-10 17:00S 45°59' E 170°39'815.9
2018-Feb-10 16:30S 46°04' E 170°31'816.2
2018-Feb-10 16:00S 46°10' E 170°22'816.3
2018-Feb-10 15:30S 46°15' E 170°14'816.1
2018-Feb-10 15:00S 46°20' E 170°05'816.0
2018-Feb-10 14:30S 46°26' E 169°56'816.0
2018-Feb-10 14:00S 46°31' E 169°48'815.7
2018-Feb-10 13:30S 46°36' E 169°39'815.6
2018-Feb-10 13:00S 46°39' E 169°28'4254.2
2018-Feb-10 13:00S 46°36' E 169°24'714.3 050 / 291009.9 5.4 16.0 18.4
2018-Feb-10 12:30S 46°41' E 169°17'816.0
2018-Feb-10 12:00S 46°43' E 169°06'169.9
2018-Feb-10 12:00S 46°42' E 169°06'817.1 060 / 191010.0 5.4 16.1 18.7
2018-Feb-10 11:30S 46°45' E 168°55'815.2
2018-Feb-10 11:00S 46°43' E 168°44'9546.9
2018-Feb-10 11:00S 46°36' E 168°36'510.9 090 / 141010.027.0 19.0
2018-Feb-10 10:30S 46°41' E 168°33'815.6
2018-Feb-10 10:00S 46°41' E 168°22'815.4
2018-Feb-10 09:30S 46°39' E 168°11'816.0
2018-Feb-10 09:00S 46°36' E 167°60'4286.9
2018-Feb-10 09:00S 46°36' E 168°06'1224.5 180 / 211012.027.0 19.0
2018-Feb-10 08:30S 46°34' E 167°49'815.9
2018-Feb-10 08:00S 46°31' E 167°38'815.7
2018-Feb-10 07:30S 46°28' E 167°28'815.6
2018-Feb-10 07:00S 46°25' E 167°17'815.9
2018-Feb-10 06:30S 46°22' E 167°06'816.1
2018-Feb-10 06:00S 46°19' E 166°56'815.7
2018-Feb-10 05:30S 46°17' E 166°45'815.9
2018-Feb-10 05:01S 46°12' E 166°35'915.9
2018-Feb-10 04:28S 46°06' E 166°27'7513.8
2018-Feb-09 23:00S 44°54' E 167°00'1312.7 360 / 51012.027.0 20.4
2018-Feb-09 22:00S 44°42' E 167°06'22 2.8 130 / 61013.027.0 21.0
2018-Feb-09 14:00S 44°24' E 166°48'2110.7 360 / 121013.3 5.4 16.5 20.4
2018-Feb-09 12:00S 44°24' E 166°18'   260 / 91013.0 5.4 15.8 19.8

Dump ship's entire track history